Hot Springs, AR (71901)

9:33 PM CDT on August 29, 2014 (GMT -0500)
Hot Springs Convention Center | Change Station
CLOSE
Current Station
Personal Weather Station
Location: Hot Springs National Park, AR
Elevation: 623 ft
Nearby Weather Stations

Elev 623 ft 34.51 °N, 93.05 °W | Updated 10 minutes ago

Scattered Clouds
Scattered Clouds
75.1 °F
Feels Like 74 °F
N
2.0
Wind Variable Wind from NNW
Gusts 5.0 mph

Today
High -- | Low -- °F
--% Chance of Precip.
Yesterday
High -- | Low -- °F
Precip. -- in
6:43 AM 7:42 PM
Waxing Crescent, 18% visible
Pressure 29.95 in
Visibility -9999.0 miles
Clouds Scattered Clouds 7000 ft
Heat Index 74 °F
Dew Point 72 °F
Humidity 89%
Rainfall 0.05 in
Snow Depth Not available.
UV 0 out of 12
Pollen 10.10 out of 12
Air Quality Not available.
Flu Activity Not available.
SPECI KHOT 300229Z AUTO 19003KT SCT070 24/23 A2995 RMK AO2 LTG DSNT NW-NE RAE10 P0001 T02390228

More Conditions Fewer Conditions

Pressure 29.95 in
Visibility -9999.0 miles
Clouds Scattered Clouds 7000 ft
Heat Index 74 °F
Dew Point 72 °F
Humidity 89%
Rainfall 0.05 in
Snow Depth Not available.
UV 0 out of 12
Pollen 10.10 out of 12
Air Quality Not available.
Flu Activity Not available.
SPECI KHOT 300229Z AUTO 19003KT SCT070 24/23 A2995 RMK AO2 LTG DSNT NW-NE RAE10 P0001 T02390228

More Conditions Fewer Conditions

10-Day Weather Forecast

Almanac

Astronomy

Aug. 29, 2014 Rise Set
Actual Time 6:43 AM CDT 7:42 PM CDT
Civil Twilight 6:17 AM CDT 8:08 PM CDT
Nautical Twilight 5:46 AM CDT 8:38 PM CDT
Astronomical Twilight 5:15 AM CDT 9:10 PM CDT
Moon 10:21 AM CDT (8/29) 9:52 PM CDT (8/29)
Length of Visible Light 13h 50m
Length of Day
12h 59m
Tomorrow will be 2m 3s shorter.
Waxing Crescent, 18% of the Moon is Illuminated
Today
Waxing Crescent
Sep 2
First Quarter
Sep 8
Full
Sep 15
Last Quarter
Sep 24
New

Today's Extremes

State Highs State Lows

Community

WunderPhotos

Upload Photos

1,748,412 photos uploaded!

Nearby

Snow Depth

Station Depth Elevation
No new snow has been reported.

Earthquake Activity

City Distance Mag. Time & Date
No recent earthquake activity has been reported nearby.
Minimum magnitude displayed is 2.5.

Coastal Water Temperatures

Place Temperature
No Stations Reporting

Nearby Weather Stations